Aviation Digital Data Service (ADDS)

Output produced by METARs form (1142 UTC 26 May 2015)
found at http://aviationweather.gov/adds/metars/
 
KBGR 261120Z 2612/2712 20009KT P6SM OVC080 
     TEMPO 2612/2613 5SM BR SCT005 
     FM261500 21008KT P6SM BKN070 
     FM270300 19004KT 3SM BR FEW005 SCT120